Time;durP1;ratioP1;P1;durP2;ratioP2;P2;SDS_P1;SDS_P2;PMS_P1;PMS_P2;Temp;Humidity;BMP_temperature;BMP_pressure;BME280_temperature;BME280_humidity;BME280_pressure;Samples;Min_cycle;Max_cycle;Signal;HPM_P1;HPM_P2
2022/03/22 00:00:02;;;;;;;45.63;17.17;;;;;;;;;;8532371;27;20046;-81
2022/03/22 00:04:05;;;;;;;39.58;16.80;;;;;;;;;;8512629;27;20497;-81
2022/03/22 00:08:09;;;;;;;42.35;16.85;;;;;;;;;;8532294;27;20070;-81
2022/03/22 00:12:12;;;;;;;41.75;16.25;;;;;;;;;;8532234;27;20053;-82
2022/03/22 00:16:15;;;;;;;43.58;18.45;;;;;;;;;;8526653;27;20043;-83
2022/03/22 00:20:18;;;;;;;40.75;17.20;;;;;;;;;;8543879;27;20046;-81
2022/03/22 00:34:34;;;;;;;43.25;17.35;;;;;;;;;;8566554;27;20050;-81
2022/03/22 00:38:37;;;;;;;42.25;16.48;;;;;;;;;;8566283;27;20173;-90
2022/03/22 00:42:40;;;;;;;43.22;17.73;;;;;;;;;;8566348;27;20042;-82
2022/03/22 00:46:42;;;;;;;42.13;17.25;;;;;;;;;;8531752;27;20039;-81
2022/03/22 00:50:48;;;;;;;42.63;18.80;;;;;;;;;;8520363;27;20382;-82
2022/03/22 00:54:51;;;;;;;35.17;15.88;;;;;;;;;;8530659;27;20435;-81
2022/03/22 01:00:01;;;;;;;44.00;17.60;;;;;;;;;;8521978;27;20494;-82
2022/03/22 01:03:17;;;;;;;38.50;16.73;;;;;;;;;;8518247;27;20044;-81
2022/03/22 01:07:21;;;;;;;40.40;17.02;;;;;;;;;;8531471;27;20050;-82
2022/03/22 01:11:24;;;;;;;42.35;17.15;;;;;;;;;;8533910;27;20044;-81
2022/03/22 01:15:32;;;;;;;38.42;17.10;;;;;;;;;;8503294;27;20058;-81
2022/03/22 01:19:35;;;;;;;53.03;18.35;;;;;;;;;;8503682;27;20452;-82
2022/03/22 01:23:39;;;;;;;38.83;16.60;;;;;;;;;;8503449;27;20494;-81
2022/03/22 01:27:42;;;;;;;46.45;18.30;;;;;;;;;;8502916;27;20099;-81
2022/03/22 01:31:45;;;;;;;44.53;18.23;;;;;;;;;;8502702;27;20043;-81
2022/03/22 01:35:48;;;;;;;37.90;16.08;;;;;;;;;;8502722;27;20059;-82
2022/03/22 01:39:51;;;;;;;41.33;17.55;;;;;;;;;;8502511;27;20043;-81
2022/03/22 01:43:55;;;;;;;39.22;17.10;;;;;;;;;;8502341;27;20047;-81
2022/03/22 01:47:59;;;;;;;47.03;18.65;;;;;;;;;;8502169;27;20131;-81
2022/03/22 01:52:04;;;;;;;42.60;16.98;;;;;;;;;;8502033;27;20043;-82
2022/03/22 01:56:08;;;;;;;44.55;17.33;;;;;;;;;;8502014;27;20378;-82
2022/03/22 02:00:13;;;;;;;34.72;16.70;;;;;;;;;;8501927;27;20050;-82
2022/03/22 02:08:35;;;;;;;57.55;23.83;;;;;;;;;;8502053;27;20043;-81
2022/03/22 02:12:40;;;;;;;44.75;19.17;;;;;;;;;;8501409;27;20043;-81
2022/03/22 02:16:43;;;;;;;42.90;17.90;;;;;;;;;;8500944;27;20035;-81
2022/03/22 02:20:47;;;;;;;44.05;17.42;;;;;;;;;;8501196;27;20398;-82
2022/03/22 02:24:51;;;;;;;37.80;16.13;;;;;;;;;;8501112;27;20043;-81
2022/03/22 02:28:57;;;;;;;43.30;17.35;;;;;;;;;;8500962;27;20142;-81
2022/03/22 02:33:01;;;;;;;45.15;17.48;;;;;;;;;;8500744;27;20047;-81
2022/03/22 02:37:05;;;;;;;44.15;17.52;;;;;;;;;;8500704;27;20126;-82
2022/03/22 02:41:17;;;;;;;42.90;17.10;;;;;;;;;;8507370;27;20406;-85
2022/03/22 02:45:20;;;;;;;38.97;17.43;;;;;;;;;;8534819;27;20050;-86
2022/03/22 02:49:22;;;;;;;43.70;16.98;;;;;;;;;;8534568;27;20284;-81
2022/03/22 02:53:24;;;;;;;;;;;;;;;;;;8508716;27;20482;-88
2022/03/22 02:57:28;;;;;;;41.58;15.60;;;;;;;;;;8500186;27;19927;-82
2022/03/22 03:01:33;;;;;;;39.97;17.92;;;;;;;;;;8499974;27;20043;-81
2022/03/22 03:05:35;;;;;;;37.58;16.05;;;;;;;;;;8499606;27;20063;-81
2022/03/22 03:09:38;;;;;;;41.08;17.45;;;;;;;;;;8499758;27;20043;-86
2022/03/22 03:18:02;;;;;;;46.05;17.70;;;;;;;;;;8499816;27;20479;-81
2022/03/22 03:22:06;;;;;;;40.65;17.13;;;;;;;;;;8499610;27;20055;-82
2022/03/22 03:26:08;;;;;;;43.58;17.77;;;;;;;;;;8498227;27;20051;-82
2022/03/22 03:30:12;;;;;;;50.20;17.67;;;;;;;;;;8498893;27;20043;-82
2022/03/22 03:34:15;;;;;;;44.13;18.67;;;;;;;;;;8498793;27;20046;-82
2022/03/22 03:38:18;;;;;;;56.33;22.05;;;;;;;;;;8498711;27;20047;-81
2022/03/22 03:42:20;;;;;;;42.13;16.65;;;;;;;;;;8499122;27;20482;-81
2022/03/22 03:50:45;;;;;;;41.38;17.23;;;;;;;;;;8498481;27;20070;-82
2022/03/22 03:54:48;;;;;;;38.90;16.10;;;;;;;;;;8498307;27;20043;-82
2022/03/22 03:58:51;;;;;;;35.63;15.10;;;;;;;;;;8498149;27;20043;-81
2022/03/22 04:02:55;;;;;;;38.42;16.45;;;;;;;;;;8497932;27;20050;-81
2022/03/22 04:06:57;;;;;;;37.13;15.63;;;;;;;;;;8498096;27;20039;-82
2022/03/22 04:11:00;;;;;;;42.28;15.65;;;;;;;;;;8498052;27;20039;-82
2022/03/22 04:15:02;;;;;;;48.90;19.45;;;;;;;;;;8497839;27;20047;-82
2022/03/22 04:19:07;;;;;;;44.13;17.85;;;;;;;;;;8497758;28;20121;-82
2022/03/22 04:23:10;;;;;;;40.47;17.35;;;;;;;;;;8497717;28;20043;-82
2022/03/22 04:35:54;;;;;;;62.33;25.25;;;;;;;;;;8498044;28;20523;-82
2022/03/22 04:40:00;;;;;;;56.30;23.50;;;;;;;;;;8504134;27;20043;-82
2022/03/22 04:44:03;;;;;;;41.92;17.92;;;;;;;;;;8504458;27;20039;-81
2022/03/22 04:48:06;;;;;;;38.47;17.00;;;;;;;;;;8504227;27;20092;-82
2022/03/22 04:56:46;;;;;;;49.03;18.88;;;;;;;;;;8504101;27;20483;-85
2022/03/22 05:00:48;;;;;;;42.80;18.42;;;;;;;;;;8522178;27;20096;-89
2022/03/22 05:04:51;;;;;;;;;;;;;;;;;;8528679;27;20555;-87
2022/03/22 05:08:55;;;;;;;;;;;;;;;;;;8533293;27;19941;-83
2022/03/22 05:12:58;;;;;;;36.00;17.23;;;;;;;;;;8508133;27;19923;-83
2022/03/22 05:17:00;;;;;;;42.10;16.45;;;;;;;;;;8518399;27;20053;-90
2022/03/22 05:21:04;;;;;;;43.28;15.10;;;;;;;;;;8516836;27;20091;-83
2022/03/22 05:25:09;;;;;;;44.80;17.85;;;;;;;;;;8524681;27;20494;-84
2022/03/22 05:29:13;;;;;;;60.95;24.73;;;;;;;;;;8525222;27;20043;-84
2022/03/22 05:33:17;;;;;;;49.03;19.25;;;;;;;;;;8508691;27;20039;-85
2022/03/22 05:37:22;;;;;;;36.10;16.40;;;;;;;;;;8532788;27;20039;-84
2022/03/22 05:41:31;;;;;;;36.85;16.33;;;;;;;;;;8536706;27;20039;-85
2022/03/22 05:45:36;;;;;;;35.92;15.77;;;;;;;;;;8536331;27;20050;-85
2022/03/22 05:49:50;;;;;;;41.22;18.20;;;;;;;;;;8535793;27;20208;-84
2022/03/22 05:53:59;;;;;;;43.80;19.45;;;;;;;;;;8536220;27;20530;-85
2022/03/22 05:58:09;;;;;;;50.53;23.40;;;;;;;;;;8528847;27;20161;-93
2022/03/22 06:02:23;;;;;;;52.95;22.52;;;;;;;;;;8520164;27;20078;-85
2022/03/22 06:06:28;;;;;;;48.97;22.27;;;;;;;;;;8540596;27;20446;-85
2022/03/22 06:10:32;;;;;;;46.65;18.38;;;;;;;;;;8568362;27;20046;-83
2022/03/22 06:14:36;;;;;;;41.85;18.98;;;;;;;;;;8570200;27;20098;-80
2022/03/22 06:18:39;;;;;;;46.13;19.35;;;;;;;;;;8570660;27;20476;-83
2022/03/22 06:22:42;;;;;;;43.35;19.50;;;;;;;;;;8570549;27;20518;-82
2022/03/22 06:26:44;;;;;;;45.90;19.67;;;;;;;;;;8570358;27;20081;-82
2022/03/22 06:30:53;;;;;;;38.72;17.98;;;;;;;;;;8521402;27;20039;-83
2022/03/22 06:35:08;;;;;;;36.28;17.65;;;;;;;;;;8500651;27;20043;-83
2022/03/22 06:39:19;;;;;;;41.28;17.95;;;;;;;;;;8502761;27;20039;-85
2022/03/22 06:43:26;;;;;;;104.82;24.73;;;;;;;;;;8514257;27;20527;-83
2022/03/22 06:47:35;;;;;;;54.03;17.80;;;;;;;;;;8500207;27;20074;-83
2022/03/22 06:51:43;;;;;;;41.20;17.08;;;;;;;;;;8529743;27;20038;-83
2022/03/22 06:55:52;;;;;;;27.85;14.05;;;;;;;;;;8532800;27;20050;-83
2022/03/22 06:59:58;;;;;;;27.30;12.85;;;;;;;;;;8529783;27;20046;-84
2022/03/22 07:04:05;;;;;;;29.90;13.00;;;;;;;;;;8546217;27;20187;-84
2022/03/22 07:08:11;;;;;;;27.15;12.98;;;;;;;;;;8568331;27;20038;-84
2022/03/22 07:12:18;;;;;;;27.75;13.60;;;;;;;;;;8568285;27;20042;-84
2022/03/22 07:16:27;;;;;;;30.73;13.90;;;;;;;;;;8532251;27;20043;-85
2022/03/22 07:20:36;;;;;;;30.75;14.25;;;;;;;;;;8506590;27;20458;-85
2022/03/22 07:24:43;;;;;;;28.75;15.27;;;;;;;;;;8502181;27;20039;-84
2022/03/22 07:28:48;;;;;;;25.83;13.35;;;;;;;;;;8496829;27;20075;-85
2022/03/22 07:32:55;;;;;;;23.80;13.55;;;;;;;;;;8506015;27;20039;-85
2022/03/22 07:37:03;;;;;;;29.02;12.68;;;;;;;;;;8503993;27;20038;-85
2022/03/22 07:41:19;;;;;;;22.67;13.23;;;;;;;;;;8531871;27;20039;-85
2022/03/22 07:45:31;;;;;;;24.55;11.60;;;;;;;;;;8503976;27;20043;-84
2022/03/22 07:54:03;;;;;;;20.42;11.45;;;;;;;;;;8519321;27;20546;-85
2022/03/22 07:58:08;;;;;;;20.05;13.73;;;;;;;;;;8522561;27;20044;-84
2022/03/22 08:02:15;;;;;;;19.33;10.88;;;;;;;;;;8547789;27;20554;-85
2022/03/22 08:06:24;;;;;;;17.92;10.07;;;;;;;;;;8526938;27;20402;-85
2022/03/22 08:10:35;;;;;;;20.23;11.73;;;;;;;;;;8514829;27;20104;-85
2022/03/22 08:14:51;;;;;;;21.10;10.85;;;;;;;;;;8522616;27;20046;-85
2022/03/22 08:18:58;;;;;;;17.58;9.63;;;;;;;;;;8527345;27;20414;-86
2022/03/22 08:23:17;;;;;;;18.88;9.98;;;;;;;;;;8516459;27;20031;-86
2022/03/22 08:27:30;;;;;;;42.63;20.70;;;;;;;;;;8496795;28;20043;-85
2022/03/22 08:31:35;;;;;;;19.70;11.38;;;;;;;;;;8497161;28;20043;-86
2022/03/22 08:35:43;;;;;;;20.00;10.88;;;;;;;;;;8503669;27;20478;-86
2022/03/22 08:39:47;;;;;;;18.45;10.15;;;;;;;;;;8547199;27;20047;-86
2022/03/22 08:43:53;;;;;;;16.83;10.20;;;;;;;;;;8529459;27;20047;-87
2022/03/22 08:47:59;;;;;;;56.15;44.80;;;;;;;;;;8501769;27;20066;-86
2022/03/22 08:52:03;;;;;;;33.33;19.25;;;;;;;;;;8529383;27;20477;-86
2022/03/22 08:56:06;;;;;;;22.98;12.23;;;;;;;;;;8510366;27;20478;-85
2022/03/22 09:00:13;;;;;;;25.95;13.27;;;;;;;;;;8510687;27;20070;-85
2022/03/22 09:08:37;;;;;;;16.63;10.38;;;;;;;;;;8520768;27;20043;-87
2022/03/22 09:12:40;;;;;;;15.70;8.88;;;;;;;;;;8526962;27;20141;-86
2022/03/22 09:16:45;;;;;;;45.47;39.00;;;;;;;;;;8519508;27;20150;-87
2022/03/22 09:20:47;;;;;;;25.50;15.45;;;;;;;;;;8513231;27;20710;-86
2022/03/22 09:24:51;;;;;;;22.50;10.93;;;;;;;;;;8501350;27;20051;-86
2022/03/22 09:28:53;;;;;;;20.77;11.15;;;;;;;;;;8525802;27;20043;-86
2022/03/22 09:32:58;;;;;;;15.38;9.10;;;;;;;;;;8526826;27;20054;-86
2022/03/22 09:37:01;;;;;;;14.60;8.75;;;;;;;;;;8511662;27;20070;-85
2022/03/22 09:41:04;;;;;;;13.32;8.90;;;;;;;;;;8518726;27;20065;-85
2022/03/22 09:45:09;;;;;;;16.17;9.77;;;;;;;;;;8531738;27;20042;-85
2022/03/22 09:49:13;;;;;;;23.77;11.70;;;;;;;;;;8515115;27;20056;-86
2022/03/22 09:53:17;;;;;;;19.10;10.48;;;;;;;;;;8525983;27;20039;-86
2022/03/22 09:57:20;;;;;;;17.98;10.57;;;;;;;;;;8517662;27;20046;-85
2022/03/22 10:01:23;;;;;;;16.02;9.38;;;;;;;;;;8512669;27;20053;-85
2022/03/22 10:05:28;;;;;;;16.27;9.75;;;;;;;;;;8506663;27;20054;-85
2022/03/22 10:09:32;;;;;;;15.90;10.10;;;;;;;;;;8509729;27;20451;-85
2022/03/22 10:13:50;;;;;;;14.43;9.80;;;;;;;;;;8513354;27;20044;-87
2022/03/22 10:18:01;;;;;;;15.75;9.70;;;;;;;;;;8519491;27;20053;-85
2022/03/22 10:22:10;;;;;;;15.27;9.20;;;;;;;;;;8529842;27;20114;-85
2022/03/22 10:26:12;;;;;;;18.50;10.02;;;;;;;;;;8516362;27;20470;-85
2022/03/22 10:30:17;;;;;;;16.13;9.50;;;;;;;;;;8524425;27;20469;-86
2022/03/22 10:34:29;;;;;;;16.13;9.55;;;;;;;;;;8543650;27;20039;-85
2022/03/22 10:38:34;;;;;;;29.63;16.70;;;;;;;;;;8526698;27;20542;-85
2022/03/22 10:42:40;;;;;;;15.98;8.95;;;;;;;;;;8538291;27;20042;-85
2022/03/22 10:46:44;;;;;;;44.30;21.95;;;;;;;;;;8514012;27;20375;-86
2022/03/22 10:50:48;;;;;;;19.60;9.40;;;;;;;;;;8504533;27;20087;-86
2022/03/22 10:54:57;;;;;;;15.38;9.30;;;;;;;;;;8504779;27;20073;-86
2022/03/22 10:59:00;;;;;;;14.48;8.82;;;;;;;;;;8527274;27;20050;-87
2022/03/22 11:03:05;;;;;;;14.70;7.63;;;;;;;;;;8522416;27;20043;-86
2022/03/22 11:07:10;;;;;;;16.88;8.40;;;;;;;;;;8518447;27;20043;-86
2022/03/22 11:11:15;;;;;;;12.98;7.55;;;;;;;;;;8507167;27;20046;-83
2022/03/22 11:15:18;;;;;;;33.53;18.92;;;;;;;;;;8529622;27;20087;-85
2022/03/22 11:19:22;;;;;;;15.98;8.90;;;;;;;;;;8508851;27;20047;-84
2022/03/22 11:23:35;;;;;;;15.80;8.90;;;;;;;;;;8518334;27;20046;-86
2022/03/22 11:27:56;;;;;;;18.45;9.68;;;;;;;;;;8531008;27;20053;-86
2022/03/22 11:36:28;;;;;;;21.45;10.25;;;;;;;;;;8501665;27;20039;-85
2022/03/22 11:45:05;;;;;;;12.35;7.25;;;;;;;;;;8498563;27;20049;-85
2022/03/22 11:49:31;;;;;;;13.32;8.00;;;;;;;;;;8497392;27;20047;-85
2022/03/22 11:53:43;;;;;;;12.25;7.32;;;;;;;;;;8498084;27;20051;-85
2022/03/22 11:57:48;;;;;;;15.90;7.47;;;;;;;;;;8527529;27;20050;-85
2022/03/22 12:02:05;;;;;;;11.35;6.80;;;;;;;;;;8528389;27;20292;-86
2022/03/22 12:06:11;;;;;;;18.20;8.80;;;;;;;;;;8531108;27;20054;-85
2022/03/22 12:10:21;;;;;;;14.95;7.13;;;;;;;;;;8522449;27;20066;-86
2022/03/22 12:14:28;;;;;;;14.05;7.65;;;;;;;;;;8514052;27;20073;-84
2022/03/22 12:18:33;;;;;;;11.90;6.68;;;;;;;;;;8529479;27;20058;-85
2022/03/22 12:22:39;;;;;;;28.83;9.35;;;;;;;;;;8506504;27;20050;-85
2022/03/22 12:26:43;;;;;;;13.30;7.63;;;;;;;;;;8515134;27;20127;-84
2022/03/22 12:30:48;;;;;;;20.55;7.63;;;;;;;;;;8507037;27;20043;-85
2022/03/22 12:34:52;;;;;;;17.60;7.68;;;;;;;;;;8503516;27;20494;-85
2022/03/22 12:38:55;;;;;;;12.90;6.68;;;;;;;;;;8517351;27;20102;-85
2022/03/22 12:42:59;;;;;;;16.02;8.43;;;;;;;;;;8530127;27;20065;-84
2022/03/22 12:47:04;;;;;;;14.88;5.65;;;;;;;;;;8528649;27;20039;-84
2022/03/22 12:51:10;;;;;;;13.23;6.82;;;;;;;;;;8530102;27;20159;-84
2022/03/22 12:55:15;;;;;;;14.00;6.97;;;;;;;;;;8529395;27;20038;-84
2022/03/22 12:59:22;;;;;;;9.70;5.60;;;;;;;;;;8534883;27;20489;-84
2022/03/22 13:03:25;;;;;;;18.63;7.45;;;;;;;;;;8537920;27;20058;-84
2022/03/22 13:07:30;;;;;;;44.00;15.57;;;;;;;;;;8537902;27;20043;-84
2022/03/22 13:11:35;;;;;;;12.95;6.57;;;;;;;;;;8537915;27;20057;-84
2022/03/22 13:15:38;;;;;;;14.00;6.68;;;;;;;;;;8537758;27;20054;-84
2022/03/22 13:19:41;;;;;;;14.45;6.75;;;;;;;;;;8537637;27;20415;-84
2022/03/22 13:23:46;;;;;;;13.80;7.15;;;;;;;;;;8537522;27;20035;-83
2022/03/22 13:27:55;;;;;;;17.55;10.18;;;;;;;;;;8537334;27;20073;-83
2022/03/22 13:32:01;;;;;;;16.25;7.18;;;;;;;;;;8537260;27;20038;-83
2022/03/22 13:36:05;;;;;;;23.65;9.85;;;;;;;;;;8536959;27;20134;-83
2022/03/22 13:40:11;;;;;;;16.95;7.82;;;;;;;;;;8513610;27;20039;-83
2022/03/22 13:44:14;;;;;;;24.05;10.55;;;;;;;;;;8531522;27;20489;-84
2022/03/22 13:48:20;;;;;;;13.88;7.22;;;;;;;;;;8531365;27;21841;-84
2022/03/22 13:52:27;;;;;;;16.02;6.82;;;;;;;;;;8507989;27;20042;-85
2022/03/22 13:56:32;;;;;;;12.70;6.57;;;;;;;;;;8514805;27;20117;-83
2022/03/22 14:00:35;;;;;;;19.52;8.90;;;;;;;;;;8521434;27;20050;-84
2022/03/22 14:04:38;;;;;;;16.02;8.20;;;;;;;;;;8515109;27;20096;-83
2022/03/22 14:08:44;;;;;;;20.83;8.52;;;;;;;;;;8515606;27;20039;-84
2022/03/22 14:12:49;;;;;;;12.80;7.22;;;;;;;;;;8500026;27;20050;-83
2022/03/22 14:16:53;;;;;;;28.88;13.45;;;;;;;;;;8506461;27;20042;-84
2022/03/22 14:20:57;;;;;;;12.15;7.93;;;;;;;;;;8529211;27;20443;-84
2022/03/22 14:25:01;;;;;;;13.70;7.75;;;;;;;;;;8517769;27;20390;-84
2022/03/22 14:29:10;;;;;;;16.17;7.38;;;;;;;;;;8519453;27;20049;-84
2022/03/22 14:33:17;;;;;;;13.00;7.07;;;;;;;;;;8528820;27;20046;-83
2022/03/22 14:37:20;;;;;;;11.43;7.03;;;;;;;;;;8503776;27;20068;-83
2022/03/22 14:41:25;;;;;;;13.40;7.15;;;;;;;;;;8509213;27;20039;-83
2022/03/22 14:45:30;;;;;;;22.48;11.20;;;;;;;;;;8502543;27;20464;-85
2022/03/22 14:49:33;;;;;;;14.63;8.05;;;;;;;;;;8505388;27;20043;-83
2022/03/22 15:02:19;;;;;;;16.67;7.85;;;;;;;;;;8509348;27;20078;-84
2022/03/22 15:06:23;;;;;;;13.82;7.13;;;;;;;;;;8515470;27;20081;-83
2022/03/22 15:10:27;;;;;;;12.68;7.15;;;;;;;;;;8511882;27;20538;-83
2022/03/22 15:14:31;;;;;;;14.38;7.25;;;;;;;;;;8519070;27;20042;-83
2022/03/22 15:18:36;;;;;;;32.60;13.75;;;;;;;;;;8507867;27;20486;-83
2022/03/22 15:22:44;;;;;;;17.58;7.63;;;;;;;;;;8491271;27;20047;-84
2022/03/22 15:26:49;;;;;;;15.48;7.55;;;;;;;;;;8498933;27;20184;-83
2022/03/22 15:30:57;;;;;;;12.00;6.75;;;;;;;;;;8498693;27;20051;-83
2022/03/22 15:35:05;;;;;;;15.00;9.02;;;;;;;;;;8498620;27;20173;-83
2022/03/22 15:39:16;;;;;;;40.70;23.02;;;;;;;;;;8498610;27;20043;-83
2022/03/22 15:43:28;;;;;;;10.50;6.20;;;;;;;;;;8498068;27;20039;-84
2022/03/22 15:47:31;;;;;;;11.00;6.15;;;;;;;;;;8509735;27;20121;-83
2022/03/22 15:51:41;;;;;;;10.32;6.18;;;;;;;;;;8498251;27;20049;-83
2022/03/22 15:55:47;;;;;;;11.32;6.32;;;;;;;;;;8498274;27;20046;-83
2022/03/22 15:59:58;;;;;;;10.73;6.05;;;;;;;;;;8497779;27;20096;-83
2022/03/22 16:04:05;;;;;;;39.40;28.48;;;;;;;;;;8508233;27;20182;-83
2022/03/22 16:08:10;;;;;;;25.60;16.45;;;;;;;;;;8499575;27;20058;-83
2022/03/22 16:12:23;;;;;;;20.05;14.20;;;;;;;;;;8501324;27;20042;-83
2022/03/22 16:16:36;;;;;;;20.10;10.45;;;;;;;;;;8531391;27;20053;-83
2022/03/22 16:20:55;;;;;;;18.10;11.75;;;;;;;;;;8519206;27;20531;-83
2022/03/22 16:25:14;;;;;;;11.30;7.38;;;;;;;;;;8497511;28;20122;-83
2022/03/22 16:29:27;;;;;;;14.38;7.13;;;;;;;;;;8497184;28;20043;-83
2022/03/22 16:38:12;;;;;;;13.32;6.72;;;;;;;;;;8504284;27;20043;-83
2022/03/22 16:42:33;;;;;;;16.10;6.40;;;;;;;;;;8530845;27;20459;-82
2022/03/22 16:46:55;;;;;;;9.98;6.00;;;;;;;;;;8507931;27;20047;-82
2022/03/22 16:51:24;;;;;;;13.43;6.95;;;;;;;;;;8512943;27;20089;-83
2022/03/22 16:55:38;;;;;;;12.18;6.55;;;;;;;;;;8510151;27;20039;-83
2022/03/22 16:59:59;;;;;;;11.77;6.43;;;;;;;;;;8503317;27;20118;-83
2022/03/22 17:04:11;;;;;;;26.15;12.25;;;;;;;;;;8503177;27;20081;-82
2022/03/22 17:08:27;;;;;;;23.63;12.20;;;;;;;;;;8504600;27;20051;-82
2022/03/22 17:12:37;;;;;;;23.60;13.68;;;;;;;;;;8502246;27;20043;-82
2022/03/22 17:16:51;;;;;;;22.45;10.40;;;;;;;;;;8512157;27;20068;-83
2022/03/22 17:21:14;;;;;;;19.13;9.75;;;;;;;;;;8531230;27;20087;-81
2022/03/22 17:25:37;;;;;;;16.43;8.83;;;;;;;;;;8503890;27;20475;-82
2022/03/22 17:29:50;;;;;;;15.48;8.82;;;;;;;;;;8502241;27;20119;-82
2022/03/22 17:34:03;;;;;;;16.63;7.47;;;;;;;;;;8513005;27;20038;-82
2022/03/22 17:38:08;;;;;;;18.60;10.98;;;;;;;;;;8505162;27;20496;-82
2022/03/22 17:42:15;;;;;;;52.58;25.75;;;;;;;;;;8533830;27;20042;-82
2022/03/22 17:46:21;;;;;;;48.40;26.13;;;;;;;;;;8500129;27;20043;-82
2022/03/22 17:50:30;;;;;;;36.95;17.05;;;;;;;;;;8514710;27;20669;-85
2022/03/22 17:54:35;;;;;;;27.15;14.30;;;;;;;;;;8517794;27;20406;-81
2022/03/22 17:58:39;;;;;;;27.67;16.60;;;;;;;;;;8518771;27;20055;-81
2022/03/22 18:02:43;;;;;;;20.10;12.32;;;;;;;;;;8523482;27;20466;-81
2022/03/22 18:06:48;;;;;;;24.50;13.27;;;;;;;;;;8515005;27;20061;-81
2022/03/22 18:11:41;;;;;;;31.38;17.33;;;;;;;;;;8517740;27;20068;-81
2022/03/22 18:15:17;;;;;;;45.80;22.27;;;;;;;;;;8522498;27;20387;-81
2022/03/22 18:19:21;;;;;;;41.65;20.77;;;;;;;;;;8527380;27;20049;-82
2022/03/22 18:23:26;;;;;;;41.40;21.95;;;;;;;;;;8525906;27;20514;-82
2022/03/22 18:27:30;;;;;;;28.17;14.95;;;;;;;;;;8525701;27;20375;-81
2022/03/22 18:31:34;;;;;;;20.60;10.20;;;;;;;;;;8524560;27;20046;-81
2022/03/22 18:35:38;;;;;;;28.75;12.07;;;;;;;;;;8550650;27;20042;-81
2022/03/22 18:39:43;;;;;;;26.40;15.02;;;;;;;;;;8509317;27;20047;-81
2022/03/22 18:43:46;;;;;;;28.55;13.98;;;;;;;;;;8517263;27;20043;-82
2022/03/22 18:47:50;;;;;;;36.65;14.25;;;;;;;;;;8520658;27;20039;-81
2022/03/22 18:51:53;;;;;;;25.42;12.65;;;;;;;;;;8514305;27;20050;-81
2022/03/22 18:55:58;;;;;;;31.30;13.48;;;;;;;;;;8506200;27;20050;-80
2022/03/22 19:00:00;;;;;;;23.52;10.57;;;;;;;;;;8518966;27;20091;-80
2022/03/22 19:04:05;;;;;;;31.77;14.82;;;;;;;;;;8512111;27;20146;-81
2022/03/22 19:08:09;;;;;;;31.17;15.95;;;;;;;;;;8510627;27;20112;-81
2022/03/22 19:12:19;;;;;;;25.55;13.60;;;;;;;;;;8514355;27;20042;-90
2022/03/22 19:20:44;;;;;;;43.10;15.00;;;;;;;;;;8504461;27;20118;-84
2022/03/22 19:24:52;;;;;;;31.27;13.65;;;;;;;;;;8504514;27;20043;-88
2022/03/22 19:29:03;;;;;;;36.63;17.45;;;;;;;;;;8507762;27;20039;-80
2022/03/22 19:33:17;;;;;;;43.75;16.67;;;;;;;;;;8517985;27;20043;-80
2022/03/22 19:37:28;;;;;;;38.80;15.63;;;;;;;;;;8514990;27;20473;-80
2022/03/22 19:41:37;;;;;;;35.80;15.43;;;;;;;;;;8495817;27;20055;-80
2022/03/22 19:45:53;;;;;;;38.85;16.42;;;;;;;;;;8514299;27;20055;-80
2022/03/22 19:49:59;;;;;;;34.50;16.35;;;;;;;;;;8514792;27;20043;-80
2022/03/22 19:54:12;;;;;;;34.65;16.38;;;;;;;;;;8517161;27;20043;-80
2022/03/22 19:58:25;;;;;;;39.33;17.80;;;;;;;;;;8488307;27;20437;-80
2022/03/22 20:02:35;;;;;;;48.13;20.10;;;;;;;;;;8513767;27;20043;-80
2022/03/22 20:06:50;;;;;;;68.15;27.75;;;;;;;;;;8513427;27;20100;-80
2022/03/22 20:11:04;;;;;;;63.53;26.77;;;;;;;;;;8512772;27;20482;-82
2022/03/22 20:15:17;;;;;;;41.92;20.95;;;;;;;;;;8513470;27;20713;-80
2022/03/22 20:19:24;;;;;;;48.03;21.45;;;;;;;;;;8514093;27;20038;-80
2022/03/22 20:23:35;;;;;;;38.92;18.92;;;;;;;;;;8513998;27;20572;-81
2022/03/22 20:27:45;;;;;;;28.25;14.70;;;;;;;;;;8515342;27;20046;-81
2022/03/22 20:31:48;;;;;;;33.67;14.95;;;;;;;;;;8509229;27;20139;-80
2022/03/22 20:35:56;;;;;;;33.13;16.77;;;;;;;;;;8513162;27;20115;-81
2022/03/22 20:40:00;;;;;;;34.00;17.25;;;;;;;;;;8514660;27;20081;-80
2022/03/22 20:44:04;;;;;;;26.30;14.10;;;;;;;;;;8531838;27;20044;-79
2022/03/22 20:48:08;;;;;;;108.93;29.05;;;;;;;;;;8531769;27;20050;-80
2022/03/22 20:52:13;;;;;;;48.97;20.77;;;;;;;;;;8531716;27;20042;-80
2022/03/22 21:00:39;;;;;;;344.75;98.57;;;;;;;;;;8531647;27;20047;-80
2022/03/22 21:04:42;;;;;;;169.52;42.70;;;;;;;;;;8531318;27;20054;-80
2022/03/22 21:08:47;;;;;;;42.58;19.38;;;;;;;;;;8531535;27;20401;-80
2022/03/22 21:12:52;;;;;;;40.17;18.10;;;;;;;;;;8531363;27;20387;-80
2022/03/22 21:16:55;;;;;;;38.15;17.20;;;;;;;;;;8531277;27;20405;-80
2022/03/22 21:20:59;;;;;;;39.60;17.88;;;;;;;;;;8535718;27;20047;-80
2022/03/22 21:25:05;;;;;;;41.97;18.15;;;;;;;;;;8537517;27;20386;-80
2022/03/22 21:29:09;;;;;;;34.90;16.48;;;;;;;;;;8537540;27;20046;-80
2022/03/22 21:33:12;;;;;;;42.10;15.63;;;;;;;;;;8537794;27;20038;-79
2022/03/22 21:37:15;;;;;;;29.83;14.23;;;;;;;;;;8537078;27;20074;-80
2022/03/22 21:41:20;;;;;;;30.40;13.88;;;;;;;;;;8537034;27;20054;-80
2022/03/22 21:45:25;;;;;;;39.80;16.23;;;;;;;;;;8528622;27;20048;-88
2022/03/22 21:49:29;;;;;;;28.95;13.60;;;;;;;;;;8512907;27;20038;-81
2022/03/22 21:53:31;;;;;;;27.38;14.77;;;;;;;;;;8511424;27;20051;-80
2022/03/22 21:57:36;;;;;;;33.90;14.15;;;;;;;;;;8506789;27;20043;-80
2022/03/22 22:01:39;;;;;;;38.47;16.05;;;;;;;;;;8527030;27;20591;-80
2022/03/22 22:05:43;;;;;;;31.92;14.32;;;;;;;;;;8518720;27;20103;-80
2022/03/22 22:09:46;;;;;;;30.45;14.65;;;;;;;;;;8487667;27;20100;-80
2022/03/22 22:13:51;;;;;;;31.52;13.68;;;;;;;;;;8505304;27;20043;-80
2022/03/22 22:17:53;;;;;;;33.47;13.90;;;;;;;;;;8520088;27;20042;-80
2022/03/22 22:21:57;;;;;;;36.28;15.40;;;;;;;;;;8503660;27;20109;-80
2022/03/22 22:25:59;;;;;;;45.63;16.75;;;;;;;;;;8519805;27;20066;-80
2022/03/22 22:30:05;;;;;;;56.05;19.38;;;;;;;;;;8531693;27;20047;-80
2022/03/22 22:34:07;;;;;;;159.13;38.88;;;;;;;;;;8534422;27;20039;-80
2022/03/22 22:38:10;;;;;;;40.38;19.17;;;;;;;;;;8534282;27;20045;-80
2022/03/22 22:42:13;;;;;;;51.70;22.20;;;;;;;;;;8556348;27;20382;-80
2022/03/22 22:46:17;;;;;;;35.72;15.40;;;;;;;;;;8500757;27;20041;-80
2022/03/22 22:50:21;;;;;;;36.15;16.02;;;;;;;;;;8500202;27;20474;-80
2022/03/22 22:54:27;;;;;;;38.00;15.55;;;;;;;;;;8502792;27;20043;-82
2022/03/22 22:58:30;;;;;;;57.45;19.40;;;;;;;;;;8516625;27;20043;-81
2022/03/22 23:02:35;;;;;;;45.05;16.63;;;;;;;;;;8514096;27;20050;-81
2022/03/22 23:10:58;;;;;;;35.33;16.25;;;;;;;;;;8531071;27;20043;-80
2022/03/22 23:15:01;;;;;;;36.70;15.70;;;;;;;;;;8532519;27;20038;-80
2022/03/22 23:19:06;;;;;;;39.17;16.52;;;;;;;;;;8533499;27;20046;-83
2022/03/22 23:23:08;;;;;;;65.50;23.30;;;;;;;;;;8534516;27;20546;-81
2022/03/22 23:27:11;;;;;;;44.80;17.63;;;;;;;;;;8533597;27;20046;-81
2022/03/22 23:31:14;;;;;;;33.25;16.67;;;;;;;;;;8533460;27;20066;-81
2022/03/22 23:35:19;;;;;;;38.75;16.55;;;;;;;;;;8526397;27;20039;-81
2022/03/22 23:39:23;;;;;;;42.97;17.17;;;;;;;;;;8521380;27;20051;-84
2022/03/22 23:43:27;;;;;;;39.40;14.95;;;;;;;;;;8498033;27;20081;-88
2022/03/22 23:47:31;;;;;;;34.95;14.63;;;;;;;;;;8498805;27;20043;-82
2022/03/22 23:51:36;;;;;;;33.28;14.88;;;;;;;;;;8498758;27;20474;-89
2022/03/22 23:55:40;;;;;;;36.85;15.57;;;;;;;;;;8498665;27;20039;-81
2022/03/22 23:59:44;;;;;;;42.97;16.33;;;;;;;;;;8498539;27;20406;-82
